sensor_id;sensor_type;location;lat;lon;timestamp;pressure;altitude;pressure_sealevel;temperature;humidity
57779;BME280;43608;49.486;9.640;2023-06-22T00:00:05;98858.25;;;17.88;95.08
57779;BME280;43608;49.486;9.640;2023-06-22T00:00:41;98844.84;;;17.88;94.93
57779;BME280;43608;49.486;9.640;2023-06-22T00:01:12;98835.03;;;17.88;94.78
57779;BME280;43608;49.486;9.640;2023-06-22T00:01:42;98811.75;;;17.89;95.08
57779;BME280;43608;49.486;9.640;2023-06-22T00:02:13;98792.06;;;17.90;95.05
57779;BME280;43608;49.486;9.640;2023-06-22T00:02:43;98784.84;;;17.92;95.02
57779;BME280;43608;49.486;9.640;2023-06-22T00:03:13;98760.75;;;17.90;94.75
57779;BME280;43608;49.486;9.640;2023-06-22T00:03:44;98755.31;;;17.93;94.98
57779;BME280;43608;49.486;9.640;2023-06-22T00:04:14;98733.84;;;17.95;94.78
57779;BME280;43608;49.486;9.640;2023-06-22T00:04:45;98714.19;;;17.94;94.80
57779;BME280;43608;49.486;9.640;2023-06-22T00:05:15;98693.66;;;17.93;94.35
57779;BME280;43608;49.486;9.640;2023-06-22T00:05:46;98696.25;;;17.96;94.52
57779;BME280;43608;49.486;9.640;2023-06-22T00:06:17;98675.84;;;17.91;94.59
57779;BME280;43608;49.486;9.640;2023-06-22T00:06:47;98673.09;;;17.94;94.48
57779;BME280;43608;49.486;9.640;2023-06-22T00:07:17;98678.41;;;17.95;94.60
57779;BME280;43608;49.486;9.640;2023-06-22T00:07:48;98670.34;;;17.95;94.64
57779;BME280;43608;49.486;9.640;2023-06-22T00:08:19;98682.91;;;17.95;94.59
57779;BME280;43608;49.486;9.640;2023-06-22T00:08:49;98683.84;;;17.92;94.50
57779;BME280;43608;49.486;9.640;2023-06-22T00:09:19;98686.56;;;17.91;94.41
57779;BME280;43608;49.486;9.640;2023-06-22T00:09:50;98690.28;;;17.87;94.12
57779;BME280;43608;49.486;9.640;2023-06-22T00:10:20;98700.03;;;17.89;94.34
57779;BME280;43608;49.486;9.640;2023-06-22T00:10:50;98710.00;;;17.86;94.45
57779;BME280;43608;49.486;9.640;2023-06-22T00:11:20;98717.09;;;17.87;94.39
57779;BME280;43608;49.486;9.640;2023-06-22T00:11:51;98724.31;;;17.84;94.97
57779;BME280;43608;49.486;9.640;2023-06-22T00:12:21;98731.47;;;17.84;94.70
57779;BME280;43608;49.486;9.640;2023-06-22T00:12:51;98736.88;;;17.82;94.79
57779;BME280;43608;49.486;9.640;2023-06-22T00:13:22;98742.25;;;17.82;95.07
57779;BME280;43608;49.486;9.640;2023-06-22T00:13:52;98745.84;;;17.81;95.03
57779;BME280;43608;49.486;9.640;2023-06-22T00:14:22;98752.16;;;17.80;95.23
57779;BME280;43608;49.486;9.640;2023-06-22T00:14:53;98745.09;;;17.78;95.33
57779;BME280;43608;49.486;9.640;2023-06-22T00:15:23;98745.28;;;17.72;95.22
57779;BME280;43608;49.486;9.640;2023-06-22T00:15:53;98749.56;;;17.77;95.33
57779;BME280;43608;49.486;9.640;2023-06-22T00:16:24;98761.19;;;17.78;95.31
57779;BME280;43608;49.486;9.640;2023-06-22T00:16:54;98757.59;;;17.77;95.45
57779;BME280;43608;49.486;9.640;2023-06-22T00:17:27;98761.19;;;17.78;95.85
57779;BME280;43608;49.486;9.640;2023-06-22T00:17:58;98754.06;;;17.77;96.01
57779;BME280;43608;49.486;9.640;2023-06-22T00:18:28;98758.50;;;17.78;96.02
57779;BME280;43608;49.486;9.640;2023-06-22T00:19:00;98746.88;;;17.77;95.93
57779;BME280;43608;49.486;9.640;2023-06-22T00:19:32;98749.56;;;17.77;96.02
57779;BME280;43608;49.486;9.640;2023-06-22T00:20:05;98711.06;;;17.53;96.01
57779;BME280;43608;49.486;9.640;2023-06-22T00:20:36;98739.75;;;17.78;96.32
57779;BME280;43608;49.486;9.640;2023-06-22T00:21:07;98742.41;;;17.78;96.41
57779;BME280;43608;49.486;9.640;2023-06-22T00:21:38;98731.84;;;17.73;96.17
57779;BME280;43608;49.486;9.640;2023-06-22T00:22:08;98733.47;;;17.77;96.53
57779;BME280;43608;49.486;9.640;2023-06-22T00:22:39;98722.19;;;17.67;96.37
57779;BME280;43608;49.486;9.640;2023-06-22T00:23:09;98723.94;;;17.68;96.36
57779;BME280;43608;49.486;9.640;2023-06-22T00:23:39;98723.19;;;17.65;96.36
57779;BME280;43608;49.486;9.640;2023-06-22T00:24:11;98732.81;;;17.71;96.26
57779;BME280;43608;49.486;9.640;2023-06-22T00:24:41;98731.84;;;17.73;96.37
57779;BME280;43608;49.486;9.640;2023-06-22T00:25:12;98733.72;;;17.70;96.27
57779;BME280;43608;49.486;9.640;2023-06-22T00:25:42;98740.84;;;17.71;96.09
57779;BME280;43608;49.486;9.640;2023-06-22T00:26:13;98737.38;;;17.67;96.07
57779;BME280;43608;49.486;9.640;2023-06-22T00:26:44;98731.25;;;17.63;96.31
57779;BME280;43608;49.486;9.640;2023-06-22T00:27:14;98747.19;;;17.68;96.40
57779;BME280;43608;49.486;9.640;2023-06-22T00:27:44;98746.34;;;17.66;96.23
57779;BME280;43608;49.486;9.640;2023-06-22T00:28:15;98748.09;;;17.67;96.38
57779;BME280;43608;49.486;9.640;2023-06-22T00:28:45;98749.91;;;17.66;96.34
57779;BME280;43608;49.486;9.640;2023-06-22T00:29:16;98751.69;;;17.67;96.71
57779;BME280;43608;49.486;9.640;2023-06-22T00:29:47;98749.91;;;17.66;96.57
57779;BME280;43608;49.486;9.640;2023-06-22T00:30:18;98733.25;;;17.57;96.54
57779;BME280;43608;49.486;9.640;2023-06-22T00:30:48;98746.34;;;17.66;96.31
57779;BME280;43608;49.486;9.640;2023-06-22T00:31:19;98737.44;;;17.65;96.57
57779;BME280;43608;49.486;9.640;2023-06-22T00:31:49;98741.88;;;17.66;96.35
57779;BME280;43608;49.486;9.640;2023-06-22T00:32:20;98741.00;;;17.66;96.49
57779;BME280;43608;49.486;9.640;2023-06-22T00:32:50;98742.81;;;17.65;96.38
57779;BME280;43608;49.486;9.640;2023-06-22T00:33:20;98740.13;;;17.65;96.57
57779;BME280;43608;49.486;9.640;2023-06-22T00:33:51;98737.44;;;17.65;96.92
57779;BME280;43608;49.486;9.640;2023-06-22T00:34:21;98739.25;;;17.65;96.65
57779;BME280;43608;49.486;9.640;2023-06-22T00:34:51;98737.50;;;17.64;97.14
57779;BME280;43608;49.486;9.640;2023-06-22T00:35:22;98743.72;;;17.64;96.85
57779;BME280;43608;49.486;9.640;2023-06-22T00:35:52;98745.53;;;17.64;97.03
57779;BME280;43608;49.486;9.640;2023-06-22T00:36:25;98738.47;;;17.61;97.17
57779;BME280;43608;49.486;9.640;2023-06-22T00:36:55;98739.28;;;17.63;97.19
57779;BME280;43608;49.486;9.640;2023-06-22T00:37:26;98739.28;;;17.63;97.03
57779;BME280;43608;49.486;9.640;2023-06-22T00:38:00;98740.19;;;17.64;97.21
57779;BME280;43608;49.486;9.640;2023-06-22T00:38:30;98737.50;;;17.64;97.03
57779;BME280;43608;49.486;9.640;2023-06-22T00:39:01;98734.88;;;17.62;97.13
57779;BME280;43608;49.486;9.640;2023-06-22T00:39:32;98731.25;;;17.63;97.26
57779;BME280;43608;49.486;9.640;2023-06-22T00:40:04;98714.50;;;17.57;96.94
57779;BME280;43608;49.486;9.640;2023-06-22T00:40:35;98731.28;;;17.62;97.05
57779;BME280;43608;49.486;9.640;2023-06-22T00:41:05;98722.44;;;17.60;96.97
57779;BME280;43608;49.486;9.640;2023-06-22T00:41:36;98727.75;;;17.61;96.63
57779;BME280;43608;49.486;9.640;2023-06-22T00:42:06;98703.22;;;17.47;96.94
57779;BME280;43608;49.486;9.640;2023-06-22T00:42:37;98719.78;;;17.60;97.21
57779;BME280;43608;49.486;9.640;2023-06-22T00:43:08;98718.00;;;17.59;97.12
57779;BME280;43608;49.486;9.640;2023-06-22T00:43:39;98722.50;;;17.58;96.96
57779;BME280;43608;49.486;9.640;2023-06-22T00:44:10;98723.41;;;17.57;97.03
57779;BME280;43608;49.486;9.640;2023-06-22T00:44:41;98717.16;;;17.57;97.16
57779;BME280;43608;49.486;9.640;2023-06-22T00:45:11;98725.25;;;17.55;97.27
57779;BME280;43608;49.486;9.640;2023-06-22T00:45:41;98717.22;;;17.55;97.37
57779;BME280;43608;49.486;9.640;2023-06-22T00:46:12;98722.59;;;17.55;97.26
57779;BME280;43608;49.486;9.640;2023-06-22T00:46:42;98712.78;;;17.54;97.29
57779;BME280;43608;49.486;9.640;2023-06-22T00:47:15;98701.44;;;17.46;97.22
57779;BME280;43608;49.486;9.640;2023-06-22T00:47:46;98719.97;;;17.54;97.20
57779;BME280;43608;49.486;9.640;2023-06-22T00:48:17;98707.59;;;17.49;97.15
57779;BME280;43608;49.486;9.640;2023-06-22T00:48:47;98713.75;;;17.51;97.17
57779;BME280;43608;49.486;9.640;2023-06-22T00:49:17;98707.59;;;17.49;97.27
57779;BME280;43608;49.486;9.640;2023-06-22T00:49:49;98712.84;;;17.53;97.05
57779;BME280;43608;49.486;9.640;2023-06-22T00:50:22;98705.94;;;17.45;97.00
57779;BME280;43608;49.486;9.640;2023-06-22T00:50:53;98704.00;;;17.49;97.11
57779;BME280;43608;49.486;9.640;2023-06-22T00:51:25;98703.09;;;17.50;96.80
57779;BME280;43608;49.486;9.640;2023-06-22T00:51:57;98702.31;;;17.46;96.80
57779;BME280;43608;49.486;9.640;2023-06-22T00:52:27;98703.16;;;17.48;96.85
57779;BME280;43608;49.486;9.640;2023-06-22T00:53:02;98705.84;;;17.48;96.70
57779;BME280;43608;49.486;9.640;2023-06-22T00:53:34;98689.22;;;17.37;96.62
57779;BME280;43608;49.486;9.640;2023-06-22T00:54:07;98706.75;;;17.47;96.60
57779;BME280;43608;49.486;9.640;2023-06-22T00:54:37;98689.13;;;17.40;96.52
57779;BME280;43608;49.486;9.640;2023-06-22T00:55:08;98690.88;;;17.41;96.71
57779;BME280;43608;49.486;9.640;2023-06-22T00:55:41;98705.00;;;17.46;96.84
57779;BME280;43608;49.486;9.640;2023-06-22T00:56:16;98702.41;;;17.43;96.95
57779;BME280;43608;49.486;9.640;2023-06-22T00:56:51;98701.44;;;17.46;97.16
57779;BME280;43608;49.486;9.640;2023-06-22T00:57:25;98699.69;;;17.45;97.20
57779;BME280;43608;49.486;9.640;2023-06-22T00:57:58;98705.03;;;17.45;97.14
57779;BME280;43608;49.486;9.640;2023-06-22T00:58:28;98697.16;;;17.40;97.09
57779;BME280;43608;49.486;9.640;2023-06-22T00:59:00;98698.94;;;17.40;97.22
57779;BME280;43608;49.486;9.640;2023-06-22T00:59:31;98711.31;;;17.45;97.38
57779;BME280;43608;49.486;9.640;2023-06-22T01:00:03;98705.22;;;17.40;97.34
57779;BME280;43608;49.486;9.640;2023-06-22T01:00:38;98671.91;;;17.19;97.26
57779;BME280;43608;49.486;9.640;2023-06-22T01:01:09;98711.31;;;17.44;97.27
57779;BME280;43608;49.486;9.640;2023-06-22T01:01:39;98712.22;;;17.44;96.96
57779;BME280;43608;49.486;9.640;2023-06-22T01:02:11;98715.81;;;17.43;97.23
57779;BME280;43608;49.486;9.640;2023-06-22T01:02:42;98714.16;;;17.39;97.26
57779;BME280;43608;49.486;9.640;2023-06-22T01:03:15;98724.69;;;17.45;96.97
57779;BME280;43608;49.486;9.640;2023-06-22T01:03:47;98724.69;;;17.45;97.14
57779;BME280;43608;49.486;9.640;2023-06-22T01:04:18;98721.13;;;17.45;97.19
57779;BME280;43608;49.486;9.640;2023-06-22T01:04:48;98730.97;;;17.44;97.24
57779;BME280;43608;49.486;9.640;2023-06-22T01:05:20;98723.81;;;17.45;97.05
57779;BME280;43608;49.486;9.640;2023-06-22T01:05:51;98709.03;;;17.31;97.08
57779;BME280;43608;49.486;9.640;2023-06-22T01:06:29;98723.00;;;17.41;97.23
57779;BME280;43608;49.486;9.640;2023-06-22T01:07:35;98731.03;;;17.43;97.23
57779;BME280;43608;49.486;9.640;2023-06-22T01:09:02;98729.34;;;17.39;97.39
57779;BME280;43608;49.486;9.640;2023-06-22T01:09:57;98744.41;;;17.43;97.40
57779;BME280;43608;49.486;9.640;2023-06-22T01:10:43;98744.41;;;17.43;97.28
57779;BME280;43608;49.486;9.640;2023-06-22T01:11:28;98738.16;;;17.42;97.46
57779;BME280;43608;49.486;9.640;2023-06-22T01:12:04;98755.13;;;17.43;97.42
57779;BME280;43608;49.486;9.640;2023-06-22T01:12:45;98748.84;;;17.44;97.24
57779;BME280;43608;49.486;9.640;2023-06-22T01:14:29;98756.84;;;17.45;97.43
57779;BME280;43608;49.486;9.640;2023-06-22T01:15:08;98760.38;;;17.46;97.22
57779;BME280;43608;49.486;9.640;2023-06-22T01:15:44;98759.66;;;17.41;97.16
57779;BME280;43608;49.486;9.640;2023-06-22T01:16:29;98758.63;;;17.45;97.38
57779;BME280;43608;49.486;9.640;2023-06-22T01:17:00;98765.69;;;17.47;97.31
57779;BME280;43608;49.486;9.640;2023-06-22T01:17:32;98770.13;;;17.48;97.30
57779;BME280;43608;49.486;9.640;2023-06-22T01:18:04;98761.22;;;17.48;97.34
57779;BME280;43608;49.486;9.640;2023-06-22T01:18:36;98768.44;;;17.46;97.38
57779;BME280;43608;49.486;9.640;2023-06-22T01:19:37;98729.84;;;17.23;97.09
57779;BME280;43608;49.486;9.640;2023-06-22T01:20:14;98771.84;;;17.51;97.05
57779;BME280;43608;49.486;9.640;2023-06-22T01:20:45;98757.03;;;17.39;97.07
57779;BME280;43608;49.486;9.640;2023-06-22T01:21:19;98764.00;;;17.45;96.93
57779;BME280;43608;49.486;9.640;2023-06-22T01:21:51;98766.59;;;17.48;96.73
57779;BME280;43608;49.486;9.640;2023-06-22T01:22:30;98754.41;;;17.38;96.95
57779;BME280;43608;49.486;9.640;2023-06-22T01:25:47;98781.66;;;17.52;96.52
57779;BME280;43608;49.486;9.640;2023-06-22T01:26:28;98782.50;;;17.53;96.41
57779;BME280;43608;49.486;9.640;2023-06-22T01:28:06;98793.22;;;17.53;96.63
57779;BME280;43608;49.486;9.640;2023-06-22T01:28:50;98800.47;;;17.50;96.63
57779;BME280;43608;49.486;9.640;2023-06-22T01:29:24;98798.53;;;17.54;96.53
57779;BME280;43608;49.486;9.640;2023-06-22T01:29:59;98801.22;;;17.54;96.36
57779;BME280;43608;49.486;9.640;2023-06-22T01:30:34;98802.28;;;17.48;96.65
57779;BME280;43608;49.486;9.640;2023-06-22T01:31:05;98807.53;;;17.51;96.47
57779;BME280;43608;49.486;9.640;2023-06-22T01:31:40;98816.44;;;17.54;96.62
57779;BME280;43608;49.486;9.640;2023-06-22T01:32:12;98823.56;;;17.55;96.32
57779;BME280;43608;49.486;9.640;2023-06-22T01:32:43;98835.13;;;17.55;96.32
57779;BME280;43608;49.486;9.640;2023-06-22T01:33:15;98851.22;;;17.55;96.29
57779;BME280;43608;49.486;9.640;2023-06-22T01:33:50;98858.34;;;17.56;96.31
57779;BME280;43608;49.486;9.640;2023-06-22T01:34:21;98847.00;;;17.46;96.38
57779;BME280;43608;49.486;9.640;2023-06-22T01:34:53;98820.06;;;17.21;96.11
57779;BME280;43608;49.486;9.640;2023-06-22T01:35:24;98900.34;;;17.56;96.66
57779;BME280;43608;49.486;9.640;2023-06-22T01:35:55;98897.97;;;17.45;96.61
57779;BME280;43608;49.486;9.640;2023-06-22T01:36:26;98925.38;;;17.55;96.68
57779;BME280;43608;49.486;9.640;2023-06-22T01:36:57;98948.59;;;17.56;96.81
57779;BME280;43608;49.486;9.640;2023-06-22T01:37:29;98965.56;;;17.55;96.84
57779;BME280;43608;49.486;9.640;2023-06-22T01:38:02;98983.41;;;17.56;96.82
57779;BME280;43608;49.486;9.640;2023-06-22T01:38:33;98995.06;;;17.55;97.02
57779;BME280;43608;49.486;9.640;2023-06-22T01:39:05;99004.88;;;17.54;96.76
57779;BME280;43608;49.486;9.640;2023-06-22T01:39:36;99012.91;;;17.54;96.82
57779;BME280;43608;49.486;9.640;2023-06-22T01:40:07;99024.59;;;17.53;97.08
57779;BME280;43608;49.486;9.640;2023-06-22T01:40:38;99025.56;;;17.49;97.20
57779;BME280;43608;49.486;9.640;2023-06-22T01:41:09;99035.38;;;17.50;97.13
57779;BME280;43608;49.486;9.640;2023-06-22T01:41:41;99054.00;;;17.55;97.34
57779;BME280;43608;49.486;9.640;2023-06-22T01:42:12;99047.81;;;17.53;97.34
57779;BME280;43608;49.486;9.640;2023-06-22T01:42:44;99027.69;;;17.36;97.56
57779;BME280;43608;49.486;9.640;2023-06-22T01:43:14;99050.47;;;17.53;97.90
57779;BME280;43608;49.486;9.640;2023-06-22T01:43:45;99059.38;;;17.55;97.89
57779;BME280;43608;49.486;9.640;2023-06-22T01:44:16;99051.34;;;17.55;98.17
57779;BME280;43608;49.486;9.640;2023-06-22T01:44:46;99046.84;;;17.55;98.12
57779;BME280;43608;49.486;9.640;2023-06-22T01:45:18;99038.75;;;17.57;98.39
57779;BME280;43608;49.486;9.640;2023-06-22T01:45:50;99028.97;;;17.56;98.23
57779;BME280;43608;49.486;9.640;2023-06-22T01:46:21;99026.22;;;17.59;98.67
57779;BME280;43608;49.486;9.640;2023-06-22T01:46:52;99001.34;;;17.54;98.63
57779;BME280;43608;49.486;9.640;2023-06-22T01:47:23;98986.16;;;17.53;98.42
57779;BME280;43608;49.486;9.640;2023-06-22T01:47:54;98971.75;;;17.57;98.81
57779;BME280;43608;49.486;9.640;2023-06-22T01:48:28;98956.47;;;17.60;98.84
57779;BME280;43608;49.486;9.640;2023-06-22T01:48:59;98943.91;;;17.62;98.86
57779;BME280;43608;49.486;9.640;2023-06-22T01:49:30;98941.84;;;17.72;98.83
57779;BME280;43608;49.486;9.640;2023-06-22T01:50:00;98935.50;;;17.75;98.86
57779;BME280;43608;49.486;9.640;2023-06-22T01:50:31;98930.06;;;17.78;98.76
57779;BME280;43608;49.486;9.640;2023-06-22T01:51:02;98937.22;;;17.77;99.26
57779;BME280;43608;49.486;9.640;2023-06-22T01:51:33;98941.53;;;17.83;98.96
57779;BME280;43608;49.486;9.640;2023-06-22T01:52:04;98944.22;;;17.83;99.26
57779;BME280;43608;49.486;9.640;2023-06-22T01:52:34;98963.69;;;17.90;99.49
57779;BME280;43608;49.486;9.640;2023-06-22T01:53:04;98969.00;;;17.91;99.35
57779;BME280;43608;49.486;9.640;2023-06-22T01:53:37;98979.66;;;17.94;99.50
57779;BME280;43608;49.486;9.640;2023-06-22T01:54:07;98979.66;;;17.94;99.18
57779;BME280;43608;49.486;9.640;2023-06-22T01:54:39;98968.97;;;17.93;98.94
57779;BME280;43608;49.486;9.640;2023-06-22T01:55:10;98983.91;;;18.02;98.83
57779;BME280;43608;49.486;9.640;2023-06-22T01:55:40;98976.69;;;18.04;98.86
57779;BME280;43608;49.486;9.640;2023-06-22T01:56:11;98974.00;;;18.04;98.57
57779;BME280;43608;49.486;9.640;2023-06-22T01:56:41;98970.34;;;18.06;98.86
57779;BME280;43608;49.486;9.640;2023-06-22T01:57:12;98960.53;;;18.07;98.40
57779;BME280;43608;49.486;9.640;2023-06-22T01:57:42;98947.06;;;18.08;98.57
57779;BME280;43608;49.486;9.640;2023-06-22T01:58:13;98942.56;;;18.09;98.29
57779;BME280;43608;49.486;9.640;2023-06-22T01:58:50;98925.59;;;18.08;98.37
57779;BME280;43608;49.486;9.640;2023-06-22T01:59:32;98898.97;;;18.02;98.56
57779;BME280;43608;49.486;9.640;2023-06-22T02:00:07;98901.41;;;18.10;98.48
57779;BME280;43608;49.486;9.640;2023-06-22T02:00:47;98888.00;;;18.10;98.54
57779;BME280;43608;49.486;9.640;2023-06-22T02:01:24;98885.38;;;18.08;98.37
57779;BME280;43608;49.486;9.640;2023-06-22T02:02:04;98883.53;;;18.10;98.29
57779;BME280;43608;49.486;9.640;2023-06-22T02:02:41;98890.69;;;18.10;98.55
57779;BME280;43608;49.486;9.640;2023-06-22T02:03:14;98893.41;;;18.08;98.17
57779;BME280;43608;49.486;9.640;2023-06-22T02:04:01;98890.72;;;18.08;98.54
57779;BME280;43608;49.486;9.640;2023-06-22T02:04:56;98881.09;;;18.01;98.79
57779;BME280;43608;49.486;9.640;2023-06-22T02:05:37;98885.47;;;18.05;98.55
57779;BME280;43608;49.486;9.640;2023-06-22T02:06:15;98895.22;;;18.08;98.77
57779;BME280;43608;49.486;9.640;2023-06-22T02:06:49;98894.34;;;18.07;98.80
57779;BME280;43608;49.486;9.640;2023-06-22T02:07:23;98892.63;;;18.05;98.84
57779;BME280;43608;49.486;9.640;2023-06-22T02:08:10;98873.19;;;17.98;98.94
57779;BME280;43608;49.486;9.640;2023-06-22T02:08:47;98873.00;;;18.04;99.15
57779;BME280;43608;49.486;9.640;2023-06-22T02:09:20;98874.78;;;18.04;98.96
57779;BME280;43608;49.486;9.640;2023-06-22T02:09:52;98867.69;;;18.03;98.81
57779;BME280;43608;49.486;9.640;2023-06-22T02:10:26;98864.09;;;18.02;99.26
57779;BME280;43608;49.486;9.640;2023-06-22T02:10:59;98840.28;;;17.91;99.44
57779;BME280;43608;49.486;9.640;2023-06-22T02:11:31;98838.56;;;17.89;99.51
57779;BME280;43608;49.486;9.640;2023-06-22T02:12:03;98840.94;;;17.99;99.60
57779;BME280;43608;49.486;9.640;2023-06-22T02:12:36;98832.91;;;17.99;99.58
57779;BME280;43608;49.486;9.640;2023-06-22T02:13:07;98835.69;;;17.96;99.60
57779;BME280;43608;49.486;9.640;2023-06-22T02:13:39;98829.34;;;17.99;99.50
57779;BME280;43608;49.486;9.640;2023-06-22T02:14:13;98814.28;;;17.95;99.63
57779;BME280;43608;49.486;9.640;2023-06-22T02:14:45;98813.34;;;17.96;100.00
57779;BME280;43608;49.486;9.640;2023-06-22T02:15:17;98807.09;;;17.95;100.00
57779;BME280;43608;49.486;9.640;2023-06-22T02:15:47;98799.94;;;17.96;100.00
57779;BME280;43608;49.486;9.640;2023-06-22T02:16:18;98776.00;;;17.90;100.00
57779;BME280;43608;49.486;9.640;2023-06-22T02:16:50;98786.59;;;17.94;100.00
57779;BME280;43608;49.486;9.640;2023-06-22T02:17:21;98778.53;;;17.94;100.00
57779;BME280;43608;49.486;9.640;2023-06-22T02:17:52;98752.91;;;17.84;100.00
57779;BME280;43608;49.486;9.640;2023-06-22T02:18:22;98760.81;;;17.89;100.00
57779;BME280;43608;49.486;9.640;2023-06-22T02:18:52;98753.59;;;17.91;100.00
57779;BME280;43608;49.486;9.640;2023-06-22T02:19:23;98757.13;;;17.93;100.00
57779;BME280;43608;49.486;9.640;2023-06-22T02:19:54;98758.94;;;17.91;100.00
57779;BME280;43608;49.486;9.640;2023-06-22T02:20:25;98750.91;;;17.91;100.00
57779;BME280;43608;49.486;9.640;2023-06-22T02:20:55;98742.16;;;17.86;100.00
57779;BME280;43608;49.486;9.640;2023-06-22T02:21:26;98748.34;;;17.88;100.00
57779;BME280;43608;49.486;9.640;2023-06-22T02:21:56;98753.75;;;17.86;100.00
57779;BME280;43608;49.486;9.640;2023-06-22T02:22:26;98741.34;;;17.83;100.00
57779;BME280;43608;49.486;9.640;2023-06-22T02:22:57;98751.06;;;17.86;100.00
57779;BME280;43608;49.486;9.640;2023-06-22T02:23:27;98752.91;;;17.84;100.00
57779;BME280;43608;49.486;9.640;2023-06-22T02:23:58;98744.06;;;17.82;100.00
57779;BME280;43608;49.486;9.640;2023-06-22T02:24:29;98740.66;;;17.77;100.00
57779;BME280;43608;49.486;9.640;2023-06-22T02:25:01;98750.28;;;17.82;100.00
57779;BME280;43608;49.486;9.640;2023-06-22T02:25:32;98752.16;;;17.80;100.00
57779;BME280;43608;49.486;9.640;2023-06-22T02:26:02;98753.94;;;17.80;100.00
57779;BME280;43608;49.486;9.640;2023-06-22T02:26:33;98749.47;;;17.80;100.00
57779;BME280;43608;49.486;9.640;2023-06-22T02:27:04;98754.00;;;17.78;100.00
57779;BME280;43608;49.486;9.640;2023-06-22T02:27:37;98760.22;;;17.79;100.00
57779;BME280;43608;49.486;9.640;2023-06-22T02:28:10;98751.44;;;17.75;100.00
57779;BME280;43608;49.486;9.640;2023-06-22T02:28:40;98754.13;;;17.75;100.00
57779;BME280;43608;49.486;9.640;2023-06-22T02:29:11;98746.22;;;17.71;100.00
57779;BME280;43608;49.486;9.640;2023-06-22T02:29:41;98732.09;;;17.65;100.00
57779;BME280;43608;49.486;9.640;2023-06-22T02:30:12;98748.75;;;17.75;100.00
57779;BME280;43608;49.486;9.640;2023-06-22T02:30:42;98738.97;;;17.74;100.00
57779;BME280;43608;49.486;9.640;2023-06-22T02:31:13;98747.00;;;17.74;100.00
57779;BME280;43608;49.486;9.640;2023-06-22T02:31:43;98739.88;;;17.73;100.00
57779;BME280;43608;49.486;9.640;2023-06-22T02:32:13;98730.97;;;17.73;100.00
57779;BME280;43608;49.486;9.640;2023-06-22T02:32:45;98732.75;;;17.72;100.00
57779;BME280;43608;49.486;9.640;2023-06-22T02:33:15;98732.81;;;17.71;100.00
57779;BME280;43608;49.486;9.640;2023-06-22T02:33:46;98705.53;;;17.58;100.00
57779;BME280;43608;49.486;9.640;2023-06-22T02:34:16;98723.94;;;17.68;100.00
57779;BME280;43608;49.486;9.640;2023-06-22T02:34:48;98717.75;;;17.66;100.00
57779;BME280;43608;49.486;9.640;2023-06-22T02:35:18;98720.44;;;17.66;100.00
57779;BME280;43608;49.486;9.640;2023-06-22T02:35:49;98684.59;;;17.42;100.00
57779;BME280;43608;49.486;9.640;2023-06-22T02:36:19;98727.44;;;17.71;100.00
57779;BME280;43608;49.486;9.640;2023-06-22T02:36:52;98736.41;;;17.70;100.00
57779;BME280;43608;49.486;9.640;2023-06-22T02:37:22;98731.06;;;17.70;100.00
57779;BME280;43608;49.486;9.640;2023-06-22T02:37:55;98715.13;;;17.65;100.00
57779;BME280;43608;49.486;9.640;2023-06-22T02:38:26;98728.31;;;17.71;100.00
57779;BME280;43608;49.486;9.640;2023-06-22T02:38:56;98728.38;;;17.70;100.00
57779;BME280;43608;49.486;9.640;2023-06-22T02:39:29;98725.59;;;17.73;100.00
57779;BME280;43608;49.486;9.640;2023-06-22T02:39:59;98730.03;;;17.74;100.00
57779;BME280;43608;49.486;9.640;2023-06-22T02:40:29;98721.97;;;17.74;100.00
57779;BME280;43608;49.486;9.640;2023-06-22T02:41:00;98722.94;;;17.71;100.00
57779;BME280;43608;49.486;9.640;2023-06-22T02:41:31;98718.44;;;17.73;100.00
57779;BME280;43608;49.486;9.640;2023-06-22T02:42:01;98722.88;;;17.74;100.00
57779;BME280;43608;49.486;9.640;2023-06-22T02:42:32;98713.22;;;17.68;100.00
57779;BME280;43608;49.486;9.640;2023-06-22T02:43:02;98719.28;;;17.75;100.00
57779;BME280;43608;49.486;9.640;2023-06-22T02:43:33;98724.63;;;17.75;100.00
57779;BME280;43608;49.486;9.640;2023-06-22T02:44:03;98730.84;;;17.76;100.00
57779;BME280;43608;49.486;9.640;2023-06-22T02:44:34;98719.28;;;17.75;100.00
57779;BME280;43608;49.486;9.640;2023-06-22T02:45:04;98719.28;;;17.74;100.00
57779;BME280;43608;49.486;9.640;2023-06-22T02:45:35;98721.06;;;17.75;100.00
57779;BME280;43608;49.486;9.640;2023-06-22T02:46:05;98722.03;;;17.72;100.00
57779;BME280;43608;49.486;9.640;2023-06-22T02:46:36;98708.00;;;17.64;100.00
57779;BME280;43608;49.486;9.640;2023-06-22T02:47:07;98723.84;;;17.72;100.00
57779;BME280;43608;49.486;9.640;2023-06-22T02:47:37;98723.91;;;17.70;100.00
57779;BME280;43608;49.486;9.640;2023-06-22T02:48:07;98728.28;;;17.73;100.00
57779;BME280;43608;49.486;9.640;2023-06-22T02:48:41;98738.84;;;17.77;100.00
57779;BME280;43608;49.486;9.640;2023-06-22T02:49:11;98731.72;;;17.76;100.00
57779;BME280;43608;49.486;9.640;2023-06-22T02:49:42;98736.16;;;17.77;100.00
57779;BME280;43608;49.486;9.640;2023-06-22T02:50:15;98720.31;;;17.70;100.00
57779;BME280;43608;49.486;9.640;2023-06-22T02:50:45;98719.53;;;17.67;100.00
57779;BME280;43608;49.486;9.640;2023-06-22T02:51:15;98732.69;;;17.75;100.00
57779;BME280;43608;49.486;9.640;2023-06-22T02:51:48;98712.47;;;17.65;100.00
57779;BME280;43608;49.486;9.640;2023-06-22T02:52:19;98729.16;;;17.73;100.00
57779;BME280;43608;49.486;9.640;2023-06-22T02:52:49;98724.72;;;17.72;100.00
57779;BME280;43608;49.486;9.640;2023-06-22T02:53:19;98735.25;;;17.78;100.00
57779;BME280;43608;49.486;9.640;2023-06-22T02:53:50;98736.09;;;17.79;100.00
57779;BME280;43608;49.486;9.640;2023-06-22T02:54:23;98740.59;;;17.78;100.00
57779;BME280;43608;49.486;9.640;2023-06-22T02:54:54;98737.09;;;17.76;100.00
57779;BME280;43608;49.486;9.640;2023-06-22T02:55:24;98746.81;;;17.80;100.00
57779;BME280;43608;49.486;9.640;2023-06-22T02:55:55;98746.81;;;17.80;100.00